Louisburg, Kansas
Current Conditions -  °F | °C
As of 11:53 AM on Tuesday 21 Oct 2014 (Local Time) from KOJC Reporting Station
Clear Clear  
Wind Chill: 70°   Ceiling: Unl
Heat Index: 70°   Visibility: 10mi
Dew Point: 47°   Wind: 0mph
Humidity: 44%   Direction: NA
Pressure: 30.13"   Gusts: NA
Location:  38.62°N, 94.68°W
Report Text: KOJC 211653Z 00000KT 10SM CLR 21/08 A3013 RMK AO2 SLP198 T02110083
Loading
Personal Weather Stations






























Interactive Weather Map
Tropical Storm Tracking
New forecast layout! Learn more

10-Day Weather Forecast

Advertisements
Track Severe Weather on mobile